Time;durP1;ratioP1;P1;durP2;ratioP2;P2;SDS_P1;SDS_P2;PMS_P1;PMS_P2;Temp;Humidity;BMP_temperature;BMP_pressure;BME280_temperature;BME280_humidity;BME280_pressure;Samples;Min_cycle;Max_cycle;Signal;HPM_P1;HPM_P2
2024/03/18 00:00:43;;;;;;;16.50;7.67;;;;;;;5.94;100.00;100530.61;1481641;88;22285;-73
2024/03/18 00:03:10;;;;;;;21.10;11.73;;;;;;;5.95;100.00;100521.77;1434023;90;21628;-73
2024/03/18 00:05:38;;;;;;;20.10;6.40;;;;;;;5.95;100.00;100522.59;1419084;90;21398;-73
2024/03/18 00:08:06;;;;;;;15.73;6.60;;;;;;;5.99;100.00;100524.54;1469523;88;21375;-73
2024/03/18 00:10:33;;;;;;;12.53;5.83;;;;;;;6.00;100.00;100519.63;1466857;89;21434;-73
2024/03/18 00:13:00;;;;;;;21.80;9.27;;;;;;;5.98;100.00;100522.84;1475091;88;21840;-73
2024/03/18 00:15:27;;;;;;;16.30;7.33;;;;;;;5.99;100.00;100519.28;1427039;90;22241;-73
2024/03/18 00:17:54;;;;;;;13.50;7.43;;;;;;;5.97;100.00;100516.76;1425536;90;22396;-72
2024/03/18 00:20:21;;;;;;;19.50;8.97;;;;;;;5.98;100.00;100517.59;1471379;88;21339;-73
2024/03/18 00:22:49;;;;;;;15.40;6.40;;;;;;;5.99;100.00;100515.34;1469919;88;21368;-73
2024/03/18 00:25:16;;;;;;;16.50;7.10;;;;;;;6.00;100.00;100507.81;1470366;88;22269;-73
2024/03/18 00:27:43;;;;;;;12.13;7.00;;;;;;;5.99;100.00;100506.15;1465734;88;21493;-73
2024/03/18 00:30:11;;;;;;;12.93;6.37;;;;;;;6.01;100.00;100509.47;1444514;90;21376;-73
2024/03/18 00:32:43;;;;;;;12.50;6.10;;;;;;;6.02;100.00;100507.23;1468485;88;21413;-73
2024/03/18 00:35:10;;;;;;;14.73;5.67;;;;;;;6.00;100.00;100507.33;1469086;88;21412;-73
2024/03/18 00:37:39;;;;;;;13.60;6.27;;;;;;;6.00;100.00;100497.30;1440517;90;21504;-73
2024/03/18 00:40:10;;;;;;;10.57;4.03;;;;;;;6.00;100.00;100503.39;1473781;88;22291;-73
2024/03/18 00:42:38;;;;;;;10.03;5.53;;;;;;;6.00;100.00;100498.61;1535570;88;21472;-73
2024/03/18 00:45:09;;;;;;;24.47;7.90;;;;;;;6.00;100.00;100499.92;1467820;88;22270;-73
2024/03/18 00:47:36;;;;;;;14.78;6.00;;;;;;;5.97;100.00;100493.11;1475047;88;21434;-74
2024/03/18 00:50:05;;;;;;;11.20;4.43;;;;;;;5.95;100.00;100490.23;1447960;90;21450;-73
2024/03/18 00:52:33;;;;;;;12.80;5.70;;;;;;;5.92;100.00;100483.88;1433884;92;21554;-74
2024/03/18 00:55:01;;;;;;;21.03;7.80;;;;;;;5.85;100.00;100484.34;1462842;88;21427;-73
2024/03/18 00:57:28;;;;;;;12.50;4.80;;;;;;;5.80;100.00;100482.53;1463259;88;21398;-73
2024/03/18 00:59:55;;;;;;;13.07;4.60;;;;;;;5.75;100.00;100482.03;1441347;90;21524;-74
2024/03/18 01:02:22;;;;;;;12.27;5.27;;;;;;;5.70;100.00;100476.31;1462625;88;21420;-73
2024/03/18 01:04:49;;;;;;;9.67;4.63;;;;;;;5.66;100.00;100474.85;1441067;90;21391;-73
2024/03/18 01:07:17;;;;;;;17.37;4.70;;;;;;;5.58;100.00;100477.20;1410074;92;22466;-73
2024/03/18 01:09:46;;;;;;;12.20;4.73;;;;;;;5.50;100.00;100467.30;1473689;88;21944;-73
2024/03/18 01:12:13;;;;;;;12.43;5.23;;;;;;;5.46;100.00;100471.08;1468273;88;21456;-73
2024/03/18 01:14:40;;;;;;;15.33;4.73;;;;;;;5.46;100.00;100465.00;1460948;88;21553;-74
2024/03/18 01:17:07;;;;;;;17.33;7.57;;;;;;;5.45;100.00;100466.80;1472847;88;21353;-73
2024/03/18 01:19:37;;;;;;;12.43;5.57;;;;;;;5.45;100.00;100461.55;1442390;89;22367;-73
2024/03/18 01:22:04;;;;;;;15.80;7.90;;;;;;;5.49;100.00;100454.27;1464093;88;22424;-73
2024/03/18 01:24:32;;;;;;;11.53;4.43;;;;;;;5.50;100.00;100458.59;1471603;88;22454;-74
2024/03/18 01:26:59;;;;;;;8.70;3.70;;;;;;;5.52;100.00;100448.78;1440872;90;21360;-74
2024/03/18 01:29:26;;;;;;;12.00;3.50;;;;;;;5.56;100.00;100448.94;1420992;92;21384;-73
2024/03/18 01:31:54;;;;;;;16.97;7.23;;;;;;;5.59;100.00;100449.53;1464037;88;21346;-72
2024/03/18 01:34:21;;;;;;;18.90;9.70;;;;;;;5.61;100.00;100449.41;1443393;90;22484;-73
2024/03/18 01:36:48;;;;;;;18.67;7.73;;;;;;;5.61;100.00;100448.09;1448425;90;21450;-72
2024/03/18 01:39:19;;;;;;;13.73;4.77;;;;;;;5.62;100.00;100445.37;1469952;88;22406;-74
2024/03/18 01:41:44;;;;;;;10.60;4.53;;;;;;;5.62;100.00;100442.74;1469787;88;21493;-74
2024/03/18 01:44:12;;;;;;;21.03;7.83;;;;;;;5.63;100.00;100446.20;1440661;90;22249;-73
2024/03/18 01:46:39;;;;;;;10.47;4.53;;;;;;;5.61;100.00;100445.02;1471631;88;21522;-73
2024/03/18 01:49:07;;;;;;;9.33;3.63;;;;;;;5.62;100.00;100436.66;1472750;88;22322;-73
2024/03/18 01:51:34;;;;;;;11.20;4.07;;;;;;;5.62;100.00;100441.91;1468967;88;21530;-73
2024/03/18 01:54:02;;;;;;;11.47;4.70;;;;;;;5.61;100.00;100442.84;1433088;90;21487;-74
2024/03/18 01:56:29;;;;;;;8.00;3.33;;;;;;;5.59;100.00;100439.52;1427751;90;21406;-74
2024/03/18 01:58:59;;;;;;;12.20;3.07;;;;;;;5.57;100.00;100437.47;1425788;92;21450;-73
2024/03/18 02:01:28;;;;;;;9.20;3.30;;;;;;;5.55;100.00;100439.37;1450361;88;21463;-73
2024/03/18 02:03:55;;;;;;;8.27;3.33;;;;;;;5.52;100.00;100435.66;1469573;88;21420;-73
2024/03/18 02:06:22;;;;;;;13.13;3.53;;;;;;;5.51;100.00;100436.63;1469025;88;21360;-72
2024/03/18 02:08:50;;;;;;;10.13;3.20;;;;;;;5.50;100.00;100436.28;1466179;88;21479;-73
2024/03/18 02:11:17;;;;;;;8.93;3.67;;;;;;;5.50;100.00;100433.65;1462763;88;21374;-72
2024/03/18 02:13:45;;;;;;;8.50;4.10;;;;;;;5.50;100.00;100433.17;1426313;90;22485;-73
2024/03/18 02:16:13;;;;;;;18.90;5.27;;;;;;;5.51;100.00;100430.89;1430130;90;22485;-73
2024/03/18 02:18:40;;;;;;;11.30;4.50;;;;;;;5.54;100.00;100433.28;1425379;92;21428;-72
2024/03/18 02:21:07;;;;;;;6.13;2.23;;;;;;;5.56;100.00;100429.25;1469070;88;21331;-73
2024/03/18 02:23:35;;;;;;;11.80;3.43;;;;;;;5.56;100.00;100435.33;1469168;88;21533;-73
2024/03/18 02:26:02;;;;;;;11.80;3.53;;;;;;;5.56;100.00;100435.81;1475012;88;21420;-73
2024/03/18 02:28:30;;;;;;;12.13;4.57;;;;;;;5.56;100.00;100434.50;1475079;88;21405;-72
2024/03/18 02:31:01;;;;;;;18.73;5.60;;;;;;;5.58;100.00;100429.95;1478656;88;21530;-73
2024/03/18 02:33:28;;;;;;;8.40;2.60;;;;;;;5.59;100.00;100429.02;1477226;88;21810;-72
2024/03/18 02:35:55;;;;;;;10.17;3.63;;;;;;;5.61;100.00;100424.02;1442746;90;22491;-73
2024/03/18 02:38:23;;;;;;;5.33;3.20;;;;;;;5.63;100.00;100422.56;1425982;91;21420;-73
2024/03/18 02:40:50;;;;;;;10.23;2.97;;;;;;;5.66;100.00;100422.33;1467004;88;21383;-72
2024/03/18 02:43:17;;;;;;;6.03;2.50;;;;;;;5.66;100.00;100423.64;1444333;90;21609;-73
2024/03/18 02:45:44;;;;;;;5.00;2.40;;;;;;;5.59;100.00;100426.39;1439315;90;21362;-73
2024/03/18 02:48:12;;;;;;;17.33;7.70;;;;;;;5.53;100.00;100428.17;1468732;88;21397;-72
2024/03/18 02:50:39;;;;;;;11.80;4.00;;;;;;;5.55;100.00;100428.87;1474410;88;21475;-72
2024/03/18 02:53:06;;;;;;;7.37;2.40;;;;;;;5.59;100.00;100423.28;1444577;90;21406;-74
2024/03/18 02:55:33;;;;;;;5.90;2.37;;;;;;;5.60;100.00;100414.92;1442273;90;21412;-73
2024/03/18 02:58:01;;;;;;;8.17;3.27;;;;;;;5.58;100.00;100418.99;1468423;88;21568;-73
2024/03/18 03:00:29;;;;;;;13.33;3.47;;;;;;;5.58;100.00;100422.94;1443367;90;21391;-72
2024/03/18 03:02:56;;;;;;;8.57;2.87;;;;;;;5.62;100.00;100413.03;1407427;92;21362;-74
2024/03/18 03:05:23;;;;;;;5.60;2.37;;;;;;;5.61;100.00;100417.90;1464083;88;21534;-73
2024/03/18 03:07:51;;;;;;;6.47;2.90;;;;;;;5.56;100.00;100413.50;1428083;90;21593;-72
2024/03/18 03:10:19;;;;;;;6.83;2.03;;;;;;;5.51;100.00;100413.83;1426236;91;22176;-73
2024/03/18 03:12:46;;;;;;;5.77;2.10;;;;;;;5.51;100.00;100410.37;1465061;88;22277;-73
2024/03/18 03:15:13;;;;;;;10.53;2.73;;;;;;;5.51;100.00;100410.37;1439151;90;21457;-74
2024/03/18 03:17:40;;;;;;;9.37;2.80;;;;;;;5.52;100.00;100408.09;1437636;89;21396;-73
2024/03/18 03:20:09;;;;;;;6.97;2.10;;;;;;;5.53;100.00;100409.79;1429924;91;21413;-72
2024/03/18 03:22:37;;;;;;;7.80;2.53;;;;;;;5.51;100.00;100410.37;1470076;88;22307;-73
2024/03/18 03:25:06;;;;;;;8.23;2.40;;;;;;;5.48;100.00;100406.67;1467181;88;21427;-73
2024/03/18 03:27:34;;;;;;;9.90;3.53;;;;;;;5.49;100.00;100404.39;1468145;88;21493;-74
2024/03/18 03:30:02;;;;;;;12.60;4.10;;;;;;;5.42;100.00;100402.23;1446403;90;22367;-73
2024/03/18 03:32:30;;;;;;;14.50;5.77;;;;;;;5.40;100.00;100404.13;1422925;91;22330;-73
2024/03/18 03:34:57;;;;;;;15.17;4.40;;;;;;;5.35;100.00;100401.03;1453431;88;21694;-74
2024/03/18 03:37:24;;;;;;;10.57;5.23;;;;;;;5.37;100.00;100400.91;1441905;90;22455;-74
2024/03/18 03:39:52;;;;;;;17.07;5.10;;;;;;;5.37;100.00;100398.28;1469704;88;21582;-73
2024/03/18 03:42:19;;;;;;;10.87;4.17;;;;;;;5.30;100.00;100401.02;1444819;89;21398;-74
2024/03/18 03:44:46;;;;;;;12.93;3.63;;;;;;;5.25;100.00;100397.41;1436376;91;21613;-73
2024/03/18 03:47:15;;;;;;;8.03;4.47;;;;;;;5.21;100.00;100398.59;1470147;88;21513;-73
2024/03/18 03:49:42;;;;;;;14.67;3.37;;;;;;;5.16;100.00;100401.55;1469060;88;22312;-74
2024/03/18 03:52:10;;;;;;;10.43;3.30;;;;;;;5.12;100.00;100390.94;1445838;90;21516;-73
2024/03/18 03:54:38;;;;;;;6.97;2.97;;;;;;;5.12;100.00;100394.01;1426303;92;21594;-73
2024/03/18 03:57:05;;;;;;;4.40;2.13;;;;;;;5.06;100.00;100390.53;1463053;88;21220;-73
2024/03/18 03:59:32;;;;;;;6.90;3.07;;;;;;;4.98;100.00;100391.95;1467510;88;21376;-72
2024/03/18 04:01:59;;;;;;;6.53;2.50;;;;;;;4.97;100.00;100392.87;1464203;88;21375;-72
2024/03/18 04:04:27;;;;;;;5.27;2.30;;;;;;;4.99;100.00;100388.84;1468102;88;21331;-73
2024/03/18 04:06:54;;;;;;;10.77;3.17;;;;;;;4.97;100.00;100388.11;1470241;88;21331;-73
2024/03/18 04:09:21;;;;;;;6.23;2.70;;;;;;;4.94;100.00;100386.55;1437944;89;21437;-73
2024/03/18 04:11:49;;;;;;;8.83;2.20;;;;;;;4.89;100.00;100386.06;1419688;92;21569;-73
2024/03/18 04:14:16;;;;;;;8.70;2.70;;;;;;;4.92;100.00;100380.59;1467685;88;21308;-73
2024/03/18 04:16:43;;;;;;;7.03;2.13;;;;;;;4.93;100.00;100384.05;1426341;90;21450;-72
2024/03/18 04:19:10;;;;;;;11.97;3.50;;;;;;;4.90;100.00;100384.28;1448910;90;21362;-73
2024/03/18 04:21:39;;;;;;;5.37;2.10;;;;;;;4.90;100.00;100386.90;1467663;88;21374;-73
2024/03/18 04:24:08;;;;;;;6.30;2.60;;;;;;;4.90;100.00;100387.73;1470788;88;21361;-74
2024/03/18 04:26:36;;;;;;;6.00;2.07;;;;;;;4.90;100.00;100379.86;1469168;88;21494;-73
2024/03/18 04:29:03;;;;;;;3.73;2.17;;;;;;;4.92;100.00;100381.05;1431835;90;21435;-73
2024/03/18 04:31:31;;;;;;;8.40;2.57;;;;;;;4.95;100.00;100381.69;1464977;88;22289;-73
2024/03/18 04:33:58;;;;;;;7.07;3.47;;;;;;;4.98;100.00;100387.18;1453360;89;21443;-73
2024/03/18 04:36:25;;;;;;;8.07;2.70;;;;;;;4.93;100.00;100383.57;1464275;88;21397;-73
2024/03/18 04:38:53;;;;;;;10.07;3.07;;;;;;;4.90;100.00;100386.90;1441881;90;21376;-73
2024/03/18 04:41:20;;;;;;;12.63;3.47;;;;;;;4.85;100.00;100381.98;1422827;91;21303;-74
2024/03/18 04:43:47;;;;;;;8.60;3.97;;;;;;;4.82;100.00;100388.76;1480967;88;22493;-73
2024/03/18 04:46:15;;;;;;;7.53;2.93;;;;;;;4.80;100.00;100391.12;1444470;90;21333;-73
2024/03/18 04:48:42;;;;;;;8.60;3.30;;;;;;;4.81;100.00;100391.03;1472169;88;21354;-74
2024/03/18 04:51:09;;;;;;;6.10;2.90;;;;;;;4.80;100.00;100395.89;1444635;90;21476;-73
2024/03/18 04:53:36;;;;;;;7.60;3.87;;;;;;;4.77;100.00;100389.56;1445043;90;21384;-75
2024/03/18 04:56:04;;;;;;;8.07;3.43;;;;;;;4.79;100.00;100393.40;1427713;92;22432;-76
2024/03/18 04:58:32;;;;;;;12.67;4.07;;;;;;;4.81;100.00;100391.03;1475993;88;21479;-76
2024/03/18 05:01:01;;;;;;;11.43;3.17;;;;;;;4.81;100.00;100396.27;1471100;88;21323;-75
2024/03/18 05:03:28;;;;;;;6.50;3.40;;;;;;;4.81;100.00;100391.03;1468796;88;21530;-75
2024/03/18 05:05:55;;;;;;;16.03;6.40;;;;;;;4.79;100.00;100394.23;1467669;88;21361;-75
2024/03/18 05:08:22;;;;;;;12.93;5.70;;;;;;;4.73;100.00;100390.75;1446094;90;21854;-75
2024/03/18 05:10:50;;;;;;;14.43;6.60;;;;;;;4.62;100.00;100394.61;1426766;92;22404;-76
2024/03/18 05:13:17;;;;;;;15.57;5.80;;;;;;;4.49;100.00;100395.97;1463070;88;21353;-76
2024/03/18 05:15:44;;;;;;;16.17;3.57;;;;;;;4.49;100.00;100399.42;1431192;90;21612;-76
2024/03/18 05:18:12;;;;;;;9.60;3.33;;;;;;;4.43;100.00;100402.48;1418755;92;21362;-75
2024/03/18 05:20:40;;;;;;;9.70;3.20;;;;;;;4.44;100.00;100396.77;1467297;88;21524;-75
2024/03/18 05:23:07;;;;;;;20.50;4.33;;;;;;;4.43;100.00;100394.62;1467041;88;21346;-74
2024/03/18 05:25:34;;;;;;;12.53;3.77;;;;;;;4.45;100.00;100379.61;1448322;90;22300;-75
2024/03/18 05:28:02;;;;;;;11.03;3.53;;;;;;;4.43;100.00;100396.37;1467685;88;21317;-76
2024/03/18 05:30:29;;;;;;;11.53;4.03;;;;;;;4.41;100.00;100395.67;1436266;90;21376;-75
2024/03/18 05:32:56;;;;;;;14.83;5.10;;;;;;;4.44;100.00;100400.70;1441416;90;22386;-75
2024/03/18 05:35:23;;;;;;;13.97;5.53;;;;;;;4.45;100.00;100403.67;1452898;88;21478;-75
2024/03/18 05:37:50;;;;;;;14.90;4.67;;;;;;;4.39;100.00;100408.88;1465696;88;21368;-75
2024/03/18 05:40:18;;;;;;;15.80;5.77;;;;;;;4.36;100.00;100413.50;1464246;88;21316;-75
2024/03/18 05:42:45;;;;;;;13.17;4.50;;;;;;;4.34;100.00;100420.14;1453929;88;21561;-75
2024/03/18 05:45:13;;;;;;;9.70;4.47;;;;;;;4.30;100.00;100429.17;1450396;90;21325;-75
2024/03/18 05:47:40;;;;;;;9.53;4.53;;;;;;;4.31;100.00;100425.60;1418823;91;21561;-75
2024/03/18 05:50:08;;;;;;;9.57;4.33;;;;;;;4.26;100.00;100432.97;1459818;88;22498;-75
2024/03/18 05:52:35;;;;;;;18.23;6.23;;;;;;;4.22;100.00;100430.18;1471365;88;21583;-75
2024/03/18 05:55:04;;;;;;;12.33;4.47;;;;;;;4.27;100.00;100437.25;1470338;88;22283;-75
2024/03/18 05:57:31;;;;;;;15.70;4.83;;;;;;;4.22;100.00;100433.63;1466625;88;21479;-75
2024/03/18 05:59:58;;;;;;;14.83;3.97;;;;;;;4.14;100.00;100432.02;1473576;88;22307;-75
2024/03/18 06:02:25;;;;;;;7.87;3.77;;;;;;;4.16;100.00;100427.99;1450535;90;21383;-75
2024/03/18 06:04:52;;;;;;;9.07;4.17;;;;;;;4.20;100.00;100429.44;1465879;88;22425;-75
2024/03/18 06:07:21;;;;;;;12.90;4.70;;;;;;;4.20;100.00;100432.06;1473950;88;21339;-75
2024/03/18 06:09:48;;;;;;;11.33;4.00;;;;;;;4.19;100.00;100427.77;1439128;90;21316;-74
2024/03/18 06:12:15;;;;;;;14.67;4.87;;;;;;;4.22;100.00;100432.80;1427486;90;21317;-75
2024/03/18 06:14:42;;;;;;;19.90;6.57;;;;;;;4.22;100.00;100432.80;1450661;90;21413;-75
2024/03/18 06:17:10;;;;;;;17.90;5.80;;;;;;;4.19;100.00;100435.16;1426624;91;21710;-75
2024/03/18 06:19:37;;;;;;;11.30;4.33;;;;;;;4.25;100.00;100437.83;1471074;88;21346;-75
2024/03/18 06:22:09;;;;;;;11.00;4.00;;;;;;;4.24;100.00;100436.16;1451847;90;21376;-75
2024/03/18 06:27:20;;;;;;;13.07;4.90;;;;;;;4.33;100.00;100441.23;1464517;88;21605;-75
2024/03/18 06:29:47;;;;;;;10.60;4.57;;;;;;;4.40;100.00;100447.25;1442450;90;21421;-76
2024/03/18 06:32:15;;;;;;;10.83;4.87;;;;;;;4.41;100.00;100434.51;1439989;89;21337;-75
2024/03/18 06:34:43;;;;;;;11.20;4.73;;;;;;;4.43;100.00;100441.80;1475661;88;21427;-75
2024/03/18 06:37:10;;;;;;;11.00;5.33;;;;;;;4.37;100.00;100438.27;1446925;90;21413;-75
2024/03/18 06:39:37;;;;;;;10.33;5.37;;;;;;;4.38;100.00;100446.52;1462921;88;22255;-76
2024/03/18 06:42:05;;;;;;;8.77;4.03;;;;;;;4.35;100.00;100452.45;1475569;88;22018;-75
2024/03/18 06:44:33;;;;;;;8.73;4.47;;;;;;;4.27;100.00;100440.70;1448251;90;21288;-76
2024/03/18 06:47:01;;;;;;;9.93;5.40;;;;;;;4.27;100.00;100444.64;1427838;92;21339;-76
2024/03/18 06:49:28;;;;;;;8.00;4.03;;;;;;;4.36;100.00;100437.91;1462150;88;22524;-75
2024/03/18 06:51:56;;;;;;;10.13;5.63;;;;;;;4.38;100.00;100445.20;1471568;88;21442;-76
2024/03/18 06:54:23;;;;;;;7.17;4.03;;;;;;;4.52;100.00;100443.77;1447974;90;22286;-76
2024/03/18 06:56:50;;;;;;;12.37;5.03;;;;;;;4.65;100.00;100442.88;1421254;92;22009;-75
2024/03/18 06:59:17;;;;;;;7.27;3.77;;;;;;;4.72;100.00;100441.04;1446413;88;21405;-75
2024/03/18 07:01:44;;;;;;;9.77;4.87;;;;;;;4.69;100.00;100444.33;1445950;90;21420;-75
2024/03/18 07:04:12;;;;;;;10.00;4.73;;;;;;;4.76;100.00;100441.65;1442836;90;21495;-76
2024/03/18 07:06:39;;;;;;;9.97;4.67;;;;;;;4.76;100.00;100452.14;1415198;92;22255;-76
2024/03/18 07:09:07;;;;;;;6.27;3.67;;;;;;;4.73;100.00;100451.88;1470432;88;21330;-77
2024/03/18 07:11:34;;;;;;;7.27;4.20;;;;;;;4.70;100.00;100452.58;1450448;90;21382;-76
2024/03/18 07:14:01;;;;;;;6.53;3.60;;;;;;;4.71;100.00;100452.93;1442424;89;22315;-76
2024/03/18 07:16:28;;;;;;;12.33;3.87;;;;;;;4.65;100.00;100453.38;1477273;88;21448;-75
2024/03/18 07:18:56;;;;;;;6.57;3.40;;;;;;;4.65;100.00;100452.89;1449344;90;21538;-75
2024/03/18 07:21:23;;;;;;;10.23;3.80;;;;;;;4.75;100.00;100459.66;1447762;90;21465;-76
2024/03/18 07:23:50;;;;;;;5.33;3.17;;;;;;;4.78;100.00;100458.13;1424715;91;21376;-75
2024/03/18 07:26:17;;;;;;;3.83;2.53;;;;;;;4.90;100.00;100458.55;1464460;88;22257;-76
2024/03/18 07:28:45;;;;;;;7.07;3.17;;;;;;;4.97;100.00;100458.45;1472150;88;21493;-76
2024/03/18 07:31:13;;;;;;;6.17;2.67;;;;;;;4.90;100.00;100473.45;1456163;88;22433;-76
2024/03/18 07:33:41;;;;;;;6.50;3.03;;;;;;;4.90;100.00;100465.58;1470040;88;22182;-76
2024/03/18 07:36:08;;;;;;;6.57;2.70;;;;;;;4.90;100.00;100461.16;1469907;88;21676;-75
2024/03/18 07:38:35;;;;;;;5.27;2.97;;;;;;;5.02;100.00;100458.13;1445547;90;22418;-76
2024/03/18 07:41:03;;;;;;;4.30;2.77;;;;;;;5.01;100.00;100456.94;1476910;88;21405;-76
2024/03/18 07:43:30;;;;;;;3.70;2.67;;;;;;;5.03;100.00;100466.83;1461659;88;21523;-75
2024/03/18 07:45:58;;;;;;;5.67;2.87;;;;;;;5.01;100.00;100484.48;1472031;88;21361;-75
2024/03/18 07:48:26;;;;;;;9.50;2.60;;;;;;;5.04;100.00;100473.77;1465939;88;21535;-75
2024/03/18 07:50:56;;;;;;;5.90;2.33;;;;;;;4.98;100.00;100481.61;1463444;88;21347;-76
2024/03/18 07:53:23;;;;;;;5.72;2.72;;;;;;;4.97;100.00;100490.41;1466546;88;21458;-75
2024/03/18 07:56:01;;;;;;;7.83;3.47;;;;;;;4.96;100.00;100488.26;1438727;90;21398;-77
2024/03/18 07:58:28;;;;;;;4.07;2.17;;;;;;;4.89;100.00;100489.66;1423665;92;21325;-76
2024/03/18 08:00:55;;;;;;;6.73;3.13;;;;;;;4.86;100.00;100482.02;1477091;88;22389;-75
2024/03/18 08:03:23;;;;;;;6.47;3.10;;;;;;;4.83;100.00;100488.76;1447449;90;21421;-75
2024/03/18 08:05:52;;;;;;;8.30;2.70;;;;;;;4.81;100.00;100490.67;1464762;88;22455;-76
2024/03/18 08:08:19;;;;;;;5.10;2.67;;;;;;;4.69;100.00;100481.03;1449433;90;21413;-76
2024/03/18 08:10:46;;;;;;;3.93;1.93;;;;;;;4.70;100.00;100478.80;1422683;91;21399;-77
2024/03/18 08:13:14;;;;;;;3.13;2.07;;;;;;;4.72;100.00;100485.61;1473364;88;21368;-76
2024/03/18 08:15:46;;;;;;;5.90;2.30;;;;;;;4.85;100.00;100484.25;1465983;88;22046;-75
2024/03/18 08:18:13;;;;;;;4.33;2.10;;;;;;;4.93;100.00;100484.55;1465825;88;21935;-75
2024/03/18 08:20:41;;;;;;;3.67;1.87;;;;;;;4.95;100.00;100486.59;1442028;90;21585;-76
2024/03/18 08:23:09;;;;;;;4.17;1.97;;;;;;;5.03;100.00;100483.88;1440815;90;21464;-76
2024/03/18 08:25:36;;;;;;;3.13;2.00;;;;;;;4.94;100.00;100487.52;1464810;88;21519;-76
2024/03/18 08:28:03;;;;;;;6.47;2.30;;;;;;;4.84;100.00;100492.25;1469521;88;21427;-75
2024/03/18 08:30:31;;;;;;;5.27;2.17;;;;;;;4.77;100.00;100488.37;1444293;90;21502;-75
2024/03/18 08:32:58;;;;;;;5.73;2.50;;;;;;;4.67;100.00;100492.13;1425348;91;21435;-75
2024/03/18 08:35:25;;;;;;;4.80;2.40;;;;;;;4.66;100.00;100494.36;1451832;88;22285;-76
2024/03/18 08:37:53;;;;;;;4.13;2.13;;;;;;;4.61;100.00;100493.88;1444416;90;21384;-77
2024/03/18 08:40:20;;;;;;;3.97;2.47;;;;;;;4.52;100.00;100497.50;1471635;88;22433;-77
2024/03/18 08:42:47;;;;;;;4.17;1.90;;;;;;;4.60;100.00;100498.73;1464233;88;21368;-76
2024/03/18 08:45:15;;;;;;;3.27;1.83;;;;;;;4.53;100.00;100501.78;1466385;88;22523;-75
2024/03/18 08:47:42;;;;;;;4.53;2.00;;;;;;;4.54;100.00;100503.92;1462217;88;21330;-80
2024/03/18 08:50:10;;;;;;;2.70;1.70;;;;;;;4.48;100.00;100503.88;1442271;90;21381;-75
2024/03/18 08:52:37;;;;;;;3.03;1.53;;;;;;;4.55;100.00;100497.76;1467419;88;21530;-75
2024/03/18 08:55:05;;;;;;;3.17;1.73;;;;;;;4.60;100.00;100494.80;1465167;88;21486;-76
2024/03/18 08:57:33;;;;;;;3.90;1.80;;;;;;;4.72;100.00;100491.34;1443737;90;21435;-76
2024/03/18 09:00:01;;;;;;;4.80;1.53;;;;;;;4.84;100.00;100494.39;1443281;89;22854;-75
2024/03/18 09:02:28;;;;;;;2.43;1.57;;;;;;;4.74;100.00;100494.66;1443590;90;21814;-75
2024/03/18 09:04:55;;;;;;;1.93;1.50;;;;;;;4.69;100.00;100487.14;1441215;90;22366;-75
2024/03/18 09:07:23;;;;;;;3.73;2.00;;;;;;;4.75;100.00;100490.64;1468685;88;21508;-76
2024/03/18 09:09:50;;;;;;;3.37;2.10;;;;;;;4.83;100.00;100482.20;1468822;88;21330;-74
2024/03/18 09:12:17;;;;;;;3.50;1.97;;;;;;;4.96;100.00;100492.20;1462217;88;22454;-74
2024/03/18 09:14:44;;;;;;;3.87;1.97;;;;;;;5.11;100.00;100478.44;1442176;90;21479;-76
2024/03/18 09:17:11;;;;;;;2.70;1.50;;;;;;;5.16;100.00;100492.55;1467237;88;22919;-74
2024/03/18 09:19:41;;;;;;;2.47;1.73;;;;;;;5.03;100.00;100487.81;1469265;88;21812;-75
2024/03/18 09:22:09;;;;;;;3.00;1.50;;;;;;;4.98;100.00;100491.62;1472095;88;22351;-74
2024/03/18 09:24:37;;;;;;;3.57;1.73;;;;;;;4.88;100.00;100493.21;1445311;90;21612;-75
2024/03/18 09:27:06;;;;;;;2.70;2.10;;;;;;;4.93;100.00;100492.42;1418163;91;21484;-74
2024/03/18 09:29:33;;;;;;;3.07;1.83;;;;;;;5.01;100.00;100487.94;1466616;88;21532;-75
2024/03/18 09:32:01;;;;;;;3.20;2.13;;;;;;;5.19;100.00;100477.89;1445578;90;21369;-76
2024/03/18 09:34:28;;;;;;;3.73;2.30;;;;;;;5.33;100.00;100480.83;1440714;90;21427;-75
2024/03/18 09:36:55;;;;;;;5.37;2.60;;;;;;;5.48;100.00;100482.80;1472836;88;21884;-77
2024/03/18 09:39:23;;;;;;;3.53;1.80;;;;;;;5.55;100.00;100478.75;1473293;88;21323;-76
2024/03/18 09:41:53;;;;;;;2.97;1.87;;;;;;;5.56;100.00;100483.91;1477260;88;21512;-76
2024/03/18 09:44:20;;;;;;;4.73;2.77;;;;;;;5.60;100.00;100480.08;1471608;88;22226;-75
2024/03/18 09:46:48;;;;;;;3.37;2.10;;;;;;;5.50;100.00;100476.97;1472165;88;21545;-74
2024/03/18 09:49:25;;;;;;;2.57;1.80;;;;;;;5.58;100.00;100478.52;1475703;88;21361;-76
2024/03/18 09:51:48;;;;;;;2.50;1.63;;;;;;;5.56;100.00;100477.34;1474463;88;21449;-76
2024/03/18 09:54:18;;;;;;;2.10;1.73;;;;;;;5.23;100.00;100479.81;1457097;88;22372;-77
2024/03/18 09:56:50;;;;;;;3.60;1.97;;;;;;;5.10;100.00;100473.33;1453156;90;21347;-75
2024/03/18 09:59:17;;;;;;;3.27;2.17;;;;;;;5.14;100.00;100477.39;1466014;88;22335;-75
2024/03/18 10:01:45;;;;;;;3.63;1.77;;;;;;;5.16;100.00;100477.64;1456367;88;21435;-76
2024/03/18 10:04:12;;;;;;;2.87;1.63;;;;;;;5.21;100.00;100473.38;1443386;90;22218;-76
2024/03/18 10:06:39;;;;;;;2.83;1.80;;;;;;;5.23;100.00;100475.88;1418258;91;21443;-75
2024/03/18 10:09:07;;;;;;;2.43;1.53;;;;;;;5.32;100.00;100474.75;1474992;88;21315;-75
2024/03/18 10:11:34;;;;;;;3.40;2.03;;;;;;;5.47;100.00;100475.40;1457830;88;21442;-75
2024/03/18 10:14:01;;;;;;;3.70;1.83;;;;;;;5.65;100.00;100469.25;1439121;90;21273;-75
2024/03/18 10:16:29;;;;;;;1.83;1.37;;;;;;;5.75;100.00;100464.13;1437973;90;21411;-75
2024/03/18 10:18:56;;;;;;;2.10;1.57;;;;;;;5.60;100.00;100468.27;1417105;91;22466;-75
2024/03/18 10:21:27;;;;;;;2.53;1.20;;;;;;;5.64;100.00;100465.80;1466549;88;21419;-75
2024/03/18 10:23:55;;;;;;;2.85;1.20;;;;;;;5.42;100.00;100461.77;1457877;88;22351;-75
2024/03/18 10:26:24;;;;;;;1.10;0.70;;;;;;;5.69;100.00;100465.42;1470583;88;21398;-75
2024/03/18 10:28:51;;;;;;;2.97;1.97;;;;;;;5.83;100.00;100461.28;1466135;88;21494;-74
2024/03/18 10:31:19;;;;;;;2.40;1.23;;;;;;;5.98;100.00;100458.48;1478767;88;21478;-76
2024/03/18 10:33:47;;;;;;;1.30;1.07;;;;;;;6.28;83.72;100461.38;1465149;88;21323;-74
2024/03/18 10:36:19;;;;;;;1.93;1.10;;;;;;;6.46;74.44;100463.53;1468585;88;21585;-76
2024/03/18 10:38:50;;;;;;;1.63;1.07;;;;;;;6.41;66.84;100459.10;1472606;88;21627;-76
2024/03/18 10:41:20;;;;;;;3.52;1.25;;;;;;;6.53;65.33;100464.70;1465983;88;21478;-76
2024/03/18 10:43:51;;;;;;;1.60;1.10;;;;;;;6.47;65.87;100464.73;1469841;88;21502;-78
2024/03/18 10:46:18;;;;;;;1.47;1.12;;;;;;;6.48;65.14;100459.00;1466353;88;22249;-79
2024/03/18 10:48:48;;;;;;;4.10;1.63;;;;;;;6.47;64.53;100455.53;1466650;88;21316;-80
2024/03/18 10:51:16;;;;;;;1.25;0.90;;;;;;;6.31;62.95;100456.37;1469830;88;21353;-80
2024/03/18 10:53:45;;;;;;;1.00;0.90;;;;;;;6.47;65.06;100458.17;1453796;88;21404;-79
2024/03/18 10:56:13;;;;;;;1.93;1.30;;;;;;;6.47;64.15;100452.05;1466951;88;21530;-81
2024/03/18 10:58:41;;;;;;;1.10;0.93;;;;;;;6.58;64.53;100444.16;1460177;88;21310;-80
2024/03/18 11:01:09;;;;;;;3.23;1.20;;;;;;;6.59;63.72;100445.84;1441893;90;21450;-81
2024/03/18 11:03:44;;;;;;;1.63;1.13;;;;;;;6.73;63.71;100445.58;1428931;92;21428;-77
2024/03/18 11:06:16;;;;;;;1.90;1.10;;;;;;;6.92;59.82;100432.25;1477363;88;21301;-80
2024/03/18 11:08:43;;;;;;;2.40;1.23;;;;;;;6.97;59.07;100435.36;1467602;88;21446;-76
2024/03/18 11:11:16;;;;;;;1.63;1.00;;;;;;;7.00;58.47;100431.16;1443328;90;21361;-77
2024/03/18 11:13:44;;;;;;;2.50;1.10;;;;;;;7.01;58.80;100434.14;1446050;90;21384;-77
2024/03/18 11:16:13;;;;;;;1.47;0.93;;;;;;;6.88;58.22;100422.95;1469803;88;22521;-77
2024/03/18 11:18:45;;;;;;;1.60;1.00;;;;;;;6.47;55.65;100423.13;1468446;88;21354;-78
2024/03/18 11:21:23;;;;;;;1.93;1.40;;;;;;;6.33;56.74;100419.81;1448667;90;21369;-77
2024/03/18 11:24:00;;;;;;;1.67;1.00;;;;;;;6.00;55.29;100418.00;1430322;92;22352;-77
2024/03/18 11:26:28;;;;;;;2.50;1.40;;;;;;;5.97;57.51;100421.34;1471952;88;21449;-78